Time;durP1;ratioP1;P1;durP2;ratioP2;P2;SDS_P1;SDS_P2;PMS_P1;PMS_P2;Temp;Humidity;BMP_temperature;BMP_pressure;BME280_temperature;BME280_humidity;BME280_pressure;Samples;Min_cycle;Max_cycle;Signal;HPM_P1;HPM_P2
2022/07/22 00:02:14;;;;;;;6.90;5.70;;;;;;;23.78;56.83;97931.03;6180406;28;20577;-84
2022/07/22 00:05:16;;;;;;;6.10;5.50;;;;;;;23.76;56.77;97922.31;6164142;28;20236;-84
2022/07/22 00:08:18;;;;;;;6.07;5.47;;;;;;;23.79;56.46;97916.53;6179662;28;20617;-84
2022/07/22 00:11:20;;;;;;;6.13;5.53;;;;;;;23.79;56.70;97914.66;6178773;28;20567;-84
2022/07/22 00:14:22;;;;;;;6.45;5.85;;;;;;;23.75;56.58;97931.44;6180696;28;20233;-84
2022/07/22 00:17:25;;;;;;;5.50;5.00;;;;;;;23.67;56.51;97924.34;6180814;28;20664;-84
2022/07/22 00:20:27;;;;;;;5.95;5.45;;;;;;;23.61;56.27;97919.75;6163171;28;20225;-84
2022/07/22 00:23:29;;;;;;;7.47;5.82;;;;;;;23.62;56.13;97921.44;6178441;28;20236;-85
2022/07/22 00:26:31;;;;;;;5.97;5.40;;;;;;;23.53;56.51;97926.16;6177438;28;20330;-84
2022/07/22 00:29:33;;;;;;;7.10;5.93;;;;;;;23.47;56.62;97921.50;6211969;28;20220;-85
2022/07/22 00:32:36;;;;;;;6.57;5.97;;;;;;;23.42;56.65;97934.75;6205849;28;20240;-85
2022/07/22 00:35:38;;;;;;;6.93;6.23;;;;;;;23.36;56.52;97929.34;6206163;28;20593;-84
2022/07/22 00:38:44;;;;;;;6.40;5.80;;;;;;;23.25;56.82;97936.13;6179078;28;20718;-85
2022/07/22 00:41:46;;;;;;;6.57;5.97;;;;;;;23.22;57.03;97935.66;6233838;28;20239;-85
2022/07/22 00:44:48;;;;;;;6.33;5.83;;;;;;;23.17;56.77;97945.16;6234547;28;20235;-84
2022/07/22 00:47:52;;;;;;;6.87;6.23;;;;;;;23.16;56.75;97935.41;6201381;28;20232;-85
2022/07/22 00:50:54;;;;;;;6.77;6.10;;;;;;;23.11;57.06;97937.88;6202885;28;20232;-85
2022/07/22 00:53:59;;;;;;;9.52;6.07;;;;;;;23.01;57.53;97937.38;6223483;28;20359;-85
2022/07/22 00:57:01;;;;;;;7.20;6.32;;;;;;;22.95;57.51;97931.94;6234465;28;20245;-84
2022/07/22 01:00:07;;;;;;;7.90;6.13;;;;;;;22.88;57.68;97936.44;6216001;28;20208;-86
2022/07/22 01:03:09;;;;;;;6.80;5.63;;;;;;;22.85;58.13;97932.28;6216108;28;20223;-85
2022/07/22 01:06:12;;;;;;;7.20;6.50;;;;;;;22.80;58.67;97942.78;6233270;28;20644;-85
2022/07/22 01:09:14;;;;;;;8.37;6.70;;;;;;;22.76;58.34;97930.72;6199526;28;20772;-85
2022/07/22 01:12:16;;;;;;;6.70;6.00;;;;;;;22.74;58.50;97925.53;6207245;28;20673;-85
2022/07/22 01:15:18;;;;;;;6.67;6.07;;;;;;;22.71;58.54;97931.31;6227851;28;20730;-85
2022/07/22 01:18:20;;;;;;;6.53;5.93;;;;;;;22.72;58.54;97924.06;6215215;28;20254;-85
2022/07/22 01:21:23;;;;;;;6.63;5.80;;;;;;;22.74;58.14;97932.78;6214165;28;20231;-84
2022/07/22 01:24:26;;;;;;;6.77;6.17;;;;;;;22.73;58.63;97929.25;6215015;28;20318;-84
2022/07/22 01:27:29;;;;;;;6.10;5.50;;;;;;;22.74;58.35;97920.16;6198223;28;20239;-84
2022/07/22 01:30:31;;;;;;;6.20;5.57;;;;;;;22.75;58.13;97913.78;6216079;28;20231;-85
2022/07/22 01:33:35;;;;;;;6.53;5.97;;;;;;;22.76;58.31;97925.34;6216298;28;20240;-84
2022/07/22 01:36:37;;;;;;;7.37;6.40;;;;;;;22.74;58.29;97927.41;6213644;28;20227;-85
2022/07/22 01:39:39;;;;;;;6.80;6.10;;;;;;;22.74;57.76;97913.94;6198629;28;20259;-85
2022/07/22 01:42:41;;;;;;;7.32;6.30;;;;;;;22.68;58.00;97918.22;6206350;28;20243;-85
2022/07/22 01:45:45;;;;;;;6.10;5.60;;;;;;;22.67;58.26;97921.09;6198801;28;20235;-85
2022/07/22 01:48:47;;;;;;;7.17;5.90;;;;;;;22.68;57.66;97925.47;6232236;28;20345;-85
2022/07/22 01:51:49;;;;;;;6.13;5.53;;;;;;;22.69;57.92;97927.13;6206954;28;20236;-84
2022/07/22 01:54:52;;;;;;;6.40;5.80;;;;;;;22.64;58.16;97926.91;6210320;28;20255;-85
2022/07/22 01:57:54;;;;;;;8.47;6.17;;;;;;;22.60;58.80;97928.28;6197412;28;20718;-84
2022/07/22 02:01:01;;;;;;;7.83;6.07;;;;;;;22.51;59.15;97935.66;6199042;28;20654;-85
2022/07/22 02:04:03;;;;;;;7.53;5.97;;;;;;;22.47;58.88;97934.38;6231193;28;20246;-84
2022/07/22 02:07:06;;;;;;;6.63;6.03;;;;;;;22.45;59.08;97925.69;6214367;28;20258;-84
2022/07/22 02:10:09;;;;;;;6.60;6.00;;;;;;;22.33;59.91;97927.22;6214543;28;20235;-84
2022/07/22 02:13:11;;;;;;;6.57;6.00;;;;;;;22.28;60.32;97932.31;6213368;28;20265;-84
2022/07/22 02:16:14;;;;;;;6.17;5.67;;;;;;;22.21;59.83;97929.56;6189055;28;20228;-84
2022/07/22 02:19:23;;;;;;;7.47;6.47;;;;;;;22.23;60.04;97926.69;6212147;28;20232;-84
2022/07/22 02:22:25;;;;;;;6.50;5.90;;;;;;;22.21;60.11;97926.03;6198081;28;20220;-84
2022/07/22 02:25:41;;;;;;;6.97;6.30;;;;;;;22.17;60.50;97924.75;6230490;28;20444;-83
2022/07/22 02:28:45;;;;;;;6.50;5.90;;;;;;;22.11;60.66;97925.53;6197086;28;20602;-84
2022/07/22 02:31:47;;;;;;;6.80;6.20;;;;;;;22.03;61.26;97929.16;6213864;28;20325;-84
2022/07/22 02:34:49;;;;;;;6.83;6.23;;;;;;;21.95;61.26;97921.19;6204921;28;20608;-84
2022/07/22 02:37:51;;;;;;;7.83;7.13;;;;;;;21.96;61.29;97920.16;6222600;28;20601;-84
2022/07/22 02:40:53;;;;;;;7.33;6.60;;;;;;;22.00;60.89;97930.38;6212874;28;20726;-84
2022/07/22 02:43:56;;;;;;;6.90;6.20;;;;;;;22.05;60.62;97932.50;6197214;28;20232;-84
2022/07/22 02:46:58;;;;;;;7.13;6.47;;;;;;;21.95;60.95;97926.56;6213639;28;20698;-84
2022/07/22 02:50:06;;;;;;;7.10;6.40;;;;;;;21.89;61.66;97930.81;6212651;28;20223;-85
2022/07/22 02:53:08;;;;;;;7.57;6.83;;;;;;;21.82;61.92;97931.75;6213086;28;20639;-84
2022/07/22 02:56:12;;;;;;;7.03;6.37;;;;;;;21.70;62.34;97934.94;6196940;28;20240;-84
2022/07/22 02:59:15;;;;;;;6.47;5.87;;;;;;;21.66;62.58;97928.25;6197303;28;20243;-84
2022/07/22 03:02:17;;;;;;;6.83;6.13;;;;;;;21.62;62.76;97928.81;6230881;28;20223;-84
2022/07/22 03:05:19;;;;;;;6.67;5.97;;;;;;;21.51;63.20;97930.13;6211604;28;20265;-84
2022/07/22 03:08:26;;;;;;;7.20;6.40;;;;;;;21.46;63.09;97931.72;6212444;28;20223;-84
2022/07/22 03:11:29;;;;;;;7.10;6.40;;;;;;;21.41;63.41;97934.94;6211516;28;20238;-83
2022/07/22 03:14:31;;;;;;;7.23;6.43;;;;;;;21.38;63.75;97934.47;6212291;28;20717;-84
2022/07/22 03:17:37;;;;;;;7.23;6.53;;;;;;;21.39;63.72;97941.50;6212180;28;20695;-84
2022/07/22 03:20:41;;;;;;;7.43;6.53;;;;;;;21.34;63.84;97931.34;6196703;28;20235;-85
2022/07/22 03:23:43;;;;;;;7.63;6.93;;;;;;;21.33;63.84;97937.72;6189155;28;20323;-84
2022/07/22 03:26:45;;;;;;;6.83;6.23;;;;;;;21.35;64.10;97939.22;6208564;28;20224;-84
2022/07/22 03:29:48;;;;;;;7.30;6.60;;;;;;;21.32;64.43;97933.38;6211886;28;20746;-84
2022/07/22 03:32:50;;;;;;;7.40;6.70;;;;;;;21.28;64.28;97935.59;6228235;28;20576;-84
2022/07/22 03:35:53;;;;;;;7.47;6.87;;;;;;;21.27;64.44;97939.28;6212136;28;20246;-84
2022/07/22 03:38:57;;;;;;;6.73;6.13;;;;;;;21.31;64.38;97945.13;6211624;28;20223;-84
2022/07/22 03:41:59;;;;;;;7.53;6.83;;;;;;;21.30;64.65;97949.66;6196456;28;20216;-84
2022/07/22 03:45:08;;;;;;;7.03;6.43;;;;;;;21.13;65.30;97948.13;6195523;28;20228;-84
2022/07/22 03:48:13;;;;;;;7.17;6.47;;;;;;;21.11;65.75;97952.00;6207464;28;20222;-83
2022/07/22 03:51:16;;;;;;;7.57;6.87;;;;;;;21.12;65.42;97946.47;6189098;28;20204;-84
2022/07/22 03:54:18;;;;;;;9.30;7.30;;;;;;;21.17;65.35;97954.78;6189933;28;20711;-83
2022/07/22 03:57:21;;;;;;;7.07;6.47;;;;;;;21.20;65.19;97962.50;6196868;28;20702;-84
2022/07/22 04:00:32;;;;;;;6.63;5.97;;;;;;;21.21;65.43;97966.88;6211700;28;20244;-84
2022/07/22 04:03:37;;;;;;;7.60;6.90;;;;;;;21.18;65.62;97966.41;6211186;28;20231;-84
2022/07/22 04:06:58;;;;;;;6.73;6.17;;;;;;;21.16;65.76;97969.22;6218764;28;20319;-84
2022/07/22 04:10:07;;;;;;;7.70;7.00;;;;;;;21.23;65.69;97970.22;6195922;28;20235;-84
2022/07/22 04:13:13;;;;;;;8.23;6.80;;;;;;;21.21;65.78;97968.72;6211204;28;20688;-84
2022/07/22 04:16:21;;;;;;;6.70;6.10;;;;;;;21.26;65.71;97967.13;6197132;28;20235;-85
2022/07/22 04:19:33;;;;;;;8.10;6.90;;;;;;;21.20;66.16;97969.75;6210617;28;20224;-84
2022/07/22 04:22:45;;;;;;;8.03;6.70;;;;;;;21.12;66.44;97976.00;6199584;28;20609;-85
2022/07/22 04:25:47;;;;;;;7.90;7.10;;;;;;;21.02;66.74;97977.25;6198931;28;20228;-85
2022/07/22 04:28:50;;;;;;;7.77;7.03;;;;;;;20.88;67.29;97979.72;6215440;28;20609;-85
2022/07/22 04:31:52;;;;;;;7.87;7.07;;;;;;;20.86;67.72;97978.25;6216261;28;20277;-84
2022/07/22 04:35:04;;;;;;;8.17;7.37;;;;;;;20.94;67.64;97970.97;6199956;28;20224;-84
2022/07/22 04:38:07;;;;;;;7.70;7.00;;;;;;;21.08;67.16;97977.34;6216337;28;20232;-85
2022/07/22 04:41:11;;;;;;;7.73;7.03;;;;;;;21.04;67.53;97981.44;6215901;28;20688;-84
2022/07/22 04:44:13;;;;;;;7.83;6.77;;;;;;;21.06;67.63;97982.09;6198302;28;20251;-84
2022/07/22 04:47:16;;;;;;;7.53;6.77;;;;;;;21.06;67.64;97984.78;6215435;28;20227;-85
2022/07/22 04:50:20;;;;;;;7.57;6.70;;;;;;;21.06;67.72;97983.94;6215510;28;20699;-84
2022/07/22 04:53:29;;;;;;;8.03;7.23;;;;;;;21.05;68.04;97979.59;6191525;28;20228;-85
2022/07/22 04:56:52;;;;;;;8.07;7.17;;;;;;;20.97;68.34;97980.47;6190888;28;20362;-85
2022/07/22 04:59:54;;;;;;;7.93;7.23;;;;;;;21.03;68.32;97987.81;6186713;28;20235;-84
2022/07/22 05:02:56;;;;;;;7.60;6.80;;;;;;;21.03;68.46;97985.13;6215320;28;20231;-85
2022/07/22 05:05:59;;;;;;;8.73;7.03;;;;;;;20.98;68.77;97992.88;6198910;28;20533;-84
2022/07/22 05:09:10;;;;;;;7.90;7.20;;;;;;;20.96;69.05;97994.94;6214428;28;20224;-84
2022/07/22 05:12:12;;;;;;;7.90;7.20;;;;;;;20.93;68.88;97989.91;6207478;28;20680;-83
2022/07/22 05:15:14;;;;;;;7.37;6.77;;;;;;;20.98;68.88;97999.09;6213488;28;20219;-83
2022/07/22 05:18:17;;;;;;;7.90;7.20;;;;;;;21.11;68.55;97993.13;6214124;28;20208;-84
2022/07/22 05:21:20;;;;;;;7.63;6.93;;;;;;;21.25;67.73;98000.41;6198720;28;20207;-84
2022/07/22 05:24:22;;;;;;;7.87;7.07;;;;;;;21.31;67.15;98002.34;6197391;28;20251;-84
2022/07/22 05:27:24;;;;;;;7.47;6.77;;;;;;;21.49;65.17;98002.00;6214097;28;20714;-85
2022/07/22 05:30:27;;;;;;;7.43;6.73;;;;;;;21.71;64.67;97993.00;6214255;28;20238;-85
2022/07/22 05:33:29;;;;;;;8.07;7.27;;;;;;;21.83;64.59;97998.75;6205173;28;20231;-84
2022/07/22 05:36:39;;;;;;;7.80;7.07;;;;;;;21.82;64.46;97991.72;6205366;28;20237;-84
2022/07/22 05:39:43;;;;;;;7.10;6.50;;;;;;;21.90;64.43;97999.66;6195044;28;20727;-84
2022/07/22 05:42:45;;;;;;;8.07;7.17;;;;;;;22.08;62.58;98008.22;6215523;28;20235;-83
2022/07/22 05:45:47;;;;;;;7.97;7.17;;;;;;;22.23;62.85;98007.34;6214407;28;20227;-84
2022/07/22 05:48:51;;;;;;;7.80;7.00;;;;;;;22.35;61.66;98004.00;6217855;28;20231;-84
2022/07/22 05:51:53;;;;;;;7.37;6.67;;;;;;;22.51;61.31;98004.78;6218351;28;20234;-83
2022/07/22 05:54:56;;;;;;;7.83;7.03;;;;;;;22.63;60.58;98004.09;6218396;28;20240;-84
2022/07/22 05:57:59;;;;;;;7.40;6.53;;;;;;;22.72;60.23;98013.69;6217472;28;20231;-84
2022/07/22 06:01:01;;;;;;;9.43;6.97;;;;;;;22.78;60.30;98015.66;6216532;28;20273;-84
2022/07/22 06:04:05;;;;;;;7.17;6.57;;;;;;;22.83;59.93;98008.88;6209083;28;20585;-84
2022/07/22 06:07:08;;;;;;;7.20;6.60;;;;;;;22.91;59.66;98006.88;6191777;28;20602;-84
2022/07/22 06:10:11;;;;;;;8.23;7.37;;;;;;;22.94;59.22;98016.44;6200174;28;20691;-84
2022/07/22 06:13:13;;;;;;;7.53;6.93;;;;;;;23.00;58.46;98013.78;6196135;28;20580;-83
2022/07/22 06:16:16;;;;;;;8.00;7.20;;;;;;;23.09;58.29;98014.47;6189787;28;20243;-85
2022/07/22 06:19:20;;;;;;;7.53;6.77;;;;;;;23.11;57.67;98015.13;6173488;28;20798;-84
2022/07/22 06:22:23;;;;;;;7.00;6.40;;;;;;;23.22;57.21;98011.91;6208824;28;20258;-84
2022/07/22 06:25:45;;;;;;;7.50;6.37;;;;;;;23.34;56.54;98010.34;6212405;28;20326;-84
2022/07/22 06:29:14;;;;;;;7.30;6.60;;;;;;;23.47;56.55;98018.50;6229789;28;20228;-84
2022/07/22 06:32:17;;;;;;;7.60;6.90;;;;;;;23.62;56.25;98020.31;6212453;28;20238;-84
2022/07/22 06:35:25;;;;;;;7.40;6.70;;;;;;;23.72;56.00;98015.41;6197853;28;20238;-84
2022/07/22 06:38:28;;;;;;;7.60;6.87;;;;;;;23.83;55.68;98025.63;6213050;28;20710;-84
2022/07/22 06:41:54;;;;;;;8.20;7.18;;;;;;;23.97;54.59;98005.78;6230436;28;20711;-84
2022/07/22 06:45:26;;;;;;;8.37;7.33;;;;;;;24.23;54.32;98010.50;6198603;28;20232;-84
2022/07/22 06:48:37;;;;;;;6.95;6.32;;;;;;;24.48;53.63;98008.09;6211654;28;20247;-84
2022/07/22 06:51:40;;;;;;;7.30;6.60;;;;;;;24.64;53.60;98003.16;6212844;28;20313;-84
2022/07/22 06:54:42;;;;;;;7.00;6.40;;;;;;;24.75;52.72;98009.84;6211978;28;20216;-84
2022/07/22 06:57:50;;;;;;;7.30;6.70;;;;;;;24.98;52.15;98002.19;6197780;28;20231;-88
2022/07/22 07:00:52;;;;;;;7.78;7.07;;;;;;;25.32;51.27;98000.34;6228705;28;20358;-89
2022/07/22 07:04:18;;;;;;;8.40;7.38;;;;;;;25.52;50.32;97994.91;6230179;28;20236;-87
2022/07/22 07:07:20;;;;;;;8.20;7.40;;;;;;;25.69;50.43;97991.56;6196531;28;20236;-87
2022/07/22 07:10:30;;;;;;;8.38;6.65;;;;;;;25.97;49.57;97996.69;6197451;28;20232;-87
2022/07/22 07:13:39;;;;;;;7.53;6.82;;;;;;;26.18;49.19;97997.44;6212090;28;20235;-88
2022/07/22 07:16:42;;;;;;;6.97;6.38;;;;;;;26.35;48.45;98004.88;6212679;28;20232;-87
2022/07/22 07:19:45;;;;;;;7.20;6.60;;;;;;;26.54;48.11;97994.19;6213154;28;20592;-87
2022/07/22 07:22:50;;;;;;;7.57;6.88;;;;;;;26.56;47.96;97989.38;6211867;28;20224;-88
2022/07/22 07:26:19;;;;;;;7.10;6.50;;;;;;;26.97;47.00;97987.06;6198312;28;20232;-87
2022/07/22 07:29:22;;;;;;;7.55;6.85;;;;;;;27.23;46.66;97990.63;6196150;28;20216;-87
2022/07/22 07:32:27;;;;;;;6.38;5.88;;;;;;;27.51;45.65;97997.22;6196592;28;20223;-88
2022/07/22 07:35:29;;;;;;;7.47;6.78;;;;;;;27.57;45.60;97990.09;6212363;28;20231;-89
2022/07/22 07:38:34;;;;;;;6.85;6.25;;;;;;;28.03;44.56;97991.50;6195832;28;20227;-89
2022/07/22 07:41:41;;;;;;;7.22;6.53;;;;;;;28.25;43.81;97982.69;6212628;28;20289;-88
2022/07/22 07:44:45;;;;;;;7.30;6.70;;;;;;;28.47;43.81;97971.31;6196016;28;20858;-88
2022/07/22 07:47:48;;;;;;;7.25;6.65;;;;;;;28.61;43.33;97979.06;6228961;28;20758;-88
2022/07/22 07:50:51;;;;;;;6.93;6.22;;;;;;;28.88;42.77;97975.97;6196211;28;20645;-88
2022/07/22 07:53:54;;;;;;;7.00;6.40;;;;;;;29.10;42.19;97974.38;6196890;28;20238;-88
2022/07/22 07:56:57;;;;;;;6.97;6.45;;;;;;;29.31;41.68;97976.53;6212797;28;20730;-88
2022/07/22 08:00:01;;;;;;;7.53;6.75;;;;;;;29.34;41.09;97975.25;6196120;28;20393;-89
2022/07/22 08:03:17;;;;;;;7.43;6.72;;;;;;;29.53;41.45;97967.81;6230436;28;20684;-89
2022/07/22 08:06:56;;;;;;;7.35;6.65;;;;;;;29.96;40.24;97970.97;6196532;28;20232;-88
2022/07/22 08:10:10;;;;;;;7.53;6.82;;;;;;;29.94;39.96;97964.13;6229104;28;20593;-88
2022/07/22 08:14:01;;;;;;;7.35;6.65;;;;;;;30.29;39.62;97969.47;6207114;28;20236;-89
2022/07/22 08:17:33;;;;;;;7.22;6.50;;;;;;;30.57;39.43;97966.78;6180145;28;20243;-89
2022/07/22 08:20:37;;;;;;;7.28;5.88;;;;;;;30.88;38.43;97957.25;6196276;28;20230;-88
2022/07/22 08:23:40;;;;;;;7.35;6.65;;;;;;;30.91;38.33;97961.41;6187665;28;20231;-89
2022/07/22 08:26:46;;;;;;;11.25;6.57;;;;;;;31.08;38.22;97965.00;6194367;28;20785;-88
2022/07/22 08:29:49;;;;;;;9.60;5.75;;;;;;;31.04;38.63;97958.38;6227181;28;20238;-88
2022/07/22 08:32:54;;;;;;;7.70;6.88;;;;;;;30.38;38.81;97959.84;6186703;28;20297;-88
2022/07/22 08:36:01;;;;;;;8.80;6.60;;;;;;;30.36;38.86;97959.25;6211535;28;20232;-88
2022/07/22 08:39:04;;;;;;;8.32;6.68;;;;;;;31.00;37.51;97952.56;6210553;28;20980;-88
2022/07/22 08:42:08;;;;;;;7.90;7.07;;;;;;;31.26;37.82;97953.81;6176792;28;20211;-88
2022/07/22 08:45:12;;;;;;;7.13;6.43;;;;;;;31.68;37.10;97954.22;6195788;28;20212;-88
2022/07/22 08:48:21;;;;;;;7.25;6.65;;;;;;;31.48;36.16;97952.00;6196393;28;22673;-88
2022/07/22 08:51:55;;;;;;;6.80;6.10;;;;;;;31.16;35.94;97948.22;6213861;28;20239;-89
2022/07/22 08:55:07;;;;;;;7.53;6.75;;;;;;;31.59;35.26;97949.41;6227314;28;20224;-88
2022/07/22 08:58:10;;;;;;;5.88;5.38;;;;;;;32.14;35.60;97952.91;6226244;28;20238;-88
2022/07/22 09:01:15;;;;;;;6.35;5.85;;;;;;;32.10;34.31;97953.69;6210910;28;20235;-88
2022/07/22 09:04:23;;;;;;;6.93;6.22;;;;;;;31.80;34.82;97952.22;6210483;28;20243;-88
2022/07/22 09:07:34;;;;;;;7.00;6.32;;;;;;;32.20;33.55;97942.91;6194616;28;20694;-88
2022/07/22 09:10:57;;;;;;;5.88;5.43;;;;;;;32.81;33.42;97947.16;6232906;28;20235;-88
2022/07/22 09:14:49;;;;;;;5.93;5.43;;;;;;;33.38;32.67;97940.25;6208629;28;20248;-88
2022/07/22 09:18:16;;;;;;;6.03;5.53;;;;;;;33.63;31.79;97943.16;6218886;28;20416;-89
2022/07/22 09:21:45;;;;;;;6.75;6.15;;;;;;;33.72;31.99;97933.34;6205279;28;20247;-89
2022/07/22 09:24:56;;;;;;;6.93;6.32;;;;;;;33.67;31.83;97928.66;6199730;28;20694;-88
2022/07/22 09:28:20;;;;;;;6.40;5.80;;;;;;;33.35;31.71;97931.47;6192948;28;20240;-88
2022/07/22 09:31:51;;;;;;;6.70;6.10;;;;;;;33.25;31.89;97930.56;6220664;28;20240;-89
2022/07/22 09:35:12;;;;;;;5.90;5.38;;;;;;;33.67;31.73;97920.44;6206631;28;20244;-88
2022/07/22 09:38:29;;;;;;;6.22;5.72;;;;;;;33.63;31.41;97926.72;6203537;28;20237;-89
2022/07/22 09:41:32;;;;;;;6.75;6.18;;;;;;;33.30;31.65;97916.94;6203946;28;20271;-90
2022/07/22 09:44:35;;;;;;;5.85;5.35;;;;;;;34.02;31.02;97927.22;6208040;28;20232;-89
2022/07/22 09:47:50;;;;;;;6.50;5.75;;;;;;;34.50;30.05;97919.72;6206429;28;20228;-89
2022/07/22 09:51:05;;;;;;;7.53;5.90;;;;;;;34.63;29.96;97921.94;6207188;28;20240;-88
2022/07/22 09:54:18;;;;;;;5.78;5.30;;;;;;;34.95;29.08;97916.22;6207462;28;20689;-88
2022/07/22 09:57:20;;;;;;;6.28;5.68;;;;;;;35.17;28.69;97914.84;6190919;28;20307;-88
2022/07/22 10:00:25;;;;;;;7.03;5.95;;;;;;;35.65;28.13;97912.59;6222683;28;20572;-88
2022/07/22 10:03:33;;;;;;;5.45;4.95;;;;;;;35.36;28.22;97897.84;6190830;28;20237;-88
2022/07/22 10:06:38;;;;;;;6.57;5.95;;;;;;;35.41;27.77;97897.84;6189427;28;20233;-89
2022/07/22 10:09:47;;;;;;;6.15;5.55;;;;;;;35.39;28.25;97897.28;6191335;28;20287;-88
2022/07/22 10:12:54;;;;;;;6.13;5.60;;;;;;;35.27;27.94;97891.25;6198304;28;20732;-88
2022/07/22 10:15:58;;;;;;;5.93;5.30;;;;;;;35.07;28.07;97890.16;6182203;28;20244;-88
2022/07/22 10:19:02;;;;;;;6.00;5.50;;;;;;;35.73;28.04;97889.28;6190799;28;20685;-88
2022/07/22 10:22:04;;;;;;;6.00;5.50;;;;;;;36.54;27.49;97875.94;6205642;28;20271;-88
2022/07/22 10:25:07;;;;;;;5.82;5.28;;;;;;;36.82;26.08;97879.06;6189091;28;20630;-89
2022/07/22 10:28:23;;;;;;;6.85;6.00;;;;;;;37.23;25.69;97880.38;6221457;28;20232;-89
2022/07/22 10:31:27;;;;;;;5.88;5.38;;;;;;;37.57;25.51;97873.94;6200597;28;20622;-89
2022/07/22 10:34:32;;;;;;;6.45;5.80;;;;;;;36.99;25.81;97873.16;6205391;28;20228;-88
2022/07/22 10:37:34;;;;;;;5.75;5.35;;;;;;;36.41;26.71;97873.03;6197667;28;20248;-88
2022/07/22 10:40:56;;;;;;;6.20;5.70;;;;;;;36.54;27.19;97861.34;6212142;28;20610;-90
2022/07/22 10:44:09;;;;;;;6.50;5.90;;;;;;;36.41;27.38;97865.59;6199912;28;20239;-89
2022/07/22 10:47:11;;;;;;;7.03;5.82;;;;;;;36.01;26.98;97872.13;6185608;28;20248;-88
2022/07/22 10:50:35;;;;;;;5.35;4.95;;;;;;;36.77;26.70;97860.66;6192086;28;20228;-88
2022/07/22 10:53:51;;;;;;;6.28;5.78;;;;;;;37.30;25.71;97852.50;6190226;28;20651;-89
2022/07/22 10:56:55;;;;;;;6.10;5.60;;;;;;;37.47;25.37;97855.59;6188786;28;20248;-89
2022/07/22 10:59:58;;;;;;;6.07;5.47;;;;;;;37.73;25.34;97842.41;6205656;28;20702;-88
2022/07/22 11:03:00;;;;;;;6.68;5.95;;;;;;;37.77;24.89;97840.69;6205382;28;20236;-89
2022/07/22 11:06:14;;;;;;;5.90;5.40;;;;;;;37.71;25.24;97841.88;6206300;28;20220;-89
2022/07/22 11:09:19;;;;;;;6.00;5.50;;;;;;;37.77;25.28;97837.94;6207238;28;20221;-88
2022/07/22 11:12:21;;;;;;;6.57;5.22;;;;;;;36.92;25.75;97844.03;6191516;28;20367;-88
2022/07/22 11:15:27;;;;;;;6.93;6.32;;;;;;;37.10;25.54;97836.16;6189748;28;20241;-88
2022/07/22 11:19:04;;;;;;;5.45;4.95;;;;;;;37.72;23.72;97838.00;6210907;28;20708;-89
2022/07/22 11:22:10;;;;;;;5.55;5.15;;;;;;;37.49;24.60;97839.63;6207347;28;20512;-89
2022/07/22 11:25:14;;;;;;;5.93;5.43;;;;;;;38.01;24.01;97827.69;6189449;28;20311;-88
2022/07/22 11:28:16;;;;;;;6.00;5.50;;;;;;;37.50;24.32;97826.66;6197112;28;20267;-89
2022/07/22 11:31:19;;;;;;;6.68;6.03;;;;;;;37.32;24.30;97828.25;6183386;28;20321;-89
2022/07/22 11:34:22;;;;;;;6.07;5.57;;;;;;;36.28;25.32;97818.66;6201061;28;20240;-89
2022/07/22 11:37:26;;;;;;;7.43;6.03;;;;;;;36.17;25.57;97823.38;6181131;28;20241;-88
2022/07/22 11:40:33;;;;;;;6.75;6.10;;;;;;;34.71;28.37;97815.28;6189971;28;20237;-88
2022/07/22 11:43:40;;;;;;;6.97;5.55;;;;;;;35.14;28.46;97813.03;6166347;28;20232;-89
2022/07/22 11:46:42;;;;;;;6.53;5.93;;;;;;;36.18;26.56;97806.59;6165114;28;20736;-88
2022/07/22 11:49:47;;;;;;;6.07;5.57;;;;;;;36.16;26.38;97810.72;6147953;28;20244;-87
2022/07/22 11:52:53;;;;;;;6.32;5.72;;;;;;;36.36;26.21;97807.88;6147272;28;20230;-88
2022/07/22 11:56:01;;;;;;;6.28;5.78;;;;;;;37.03;24.97;97805.41;6180129;28;20233;-88
2022/07/22 11:59:04;;;;;;;6.75;5.82;;;;;;;37.61;24.40;97807.00;6187576;28;20256;-88
2022/07/22 12:02:09;;;;;;;7.15;5.40;;;;;;;38.12;24.70;97787.03;6173232;28;20327;-89
2022/07/22 12:05:12;;;;;;;7.82;6.22;;;;;;;37.80;24.08;97786.91;6187895;28;20600;-89
2022/07/22 12:08:40;;;;;;;6.30;5.70;;;;;;;38.06;24.07;97793.69;6190978;28;20233;-88
2022/07/22 12:11:45;;;;;;;7.60;6.05;;;;;;;38.28;23.54;97782.09;6186557;28;20716;-88
2022/07/22 12:14:47;;;;;;;6.28;5.78;;;;;;;39.02;23.18;97783.09;6170088;28;20233;-88
2022/07/22 12:17:50;;;;;;;6.95;6.28;;;;;;;39.40;21.97;97784.59;6168259;28;20233;-88
2022/07/22 12:20:54;;;;;;;6.55;6.05;;;;;;;38.97;22.46;97774.91;6205378;28;20232;-88
2022/07/22 12:24:07;;;;;;;5.95;5.47;;;;;;;39.28;22.00;97767.66;6188774;28;20323;-88
2022/07/22 12:27:15;;;;;;;6.43;5.82;;;;;;;38.92;22.43;97767.53;6208373;28;20235;-88
2022/07/22 12:30:17;;;;;;;6.43;5.75;;;;;;;38.72;22.72;97763.19;6233846;28;20674;-88
2022/07/22 12:33:20;;;;;;;6.90;6.25;;;;;;;38.67;23.16;97760.50;6216963;28;20212;-89
2022/07/22 12:36:33;;;;;;;10.75;6.53;;;;;;;37.44;24.44;97750.72;6232563;28;20236;-89
2022/07/22 12:39:35;;;;;;;7.07;6.38;;;;;;;37.20;24.90;97743.31;6233184;28;20250;-88
2022/07/22 12:42:42;;;;;;;6.10;5.60;;;;;;;37.82;24.28;97752.44;6200275;28;20823;-88
2022/07/22 12:45:45;;;;;;;6.50;5.95;;;;;;;38.55;24.33;97749.13;6219771;28;20228;-88
2022/07/22 12:48:52;;;;;;;8.43;6.47;;;;;;;38.55;22.80;97738.09;6205294;28;20573;-89
2022/07/22 12:52:11;;;;;;;6.22;5.72;;;;;;;38.53;22.55;97737.59;6218112;28;20231;-88
2022/07/22 12:55:14;;;;;;;6.80;6.10;;;;;;;38.65;22.88;97746.19;6245072;28;20722;-89
2022/07/22 12:58:16;;;;;;;6.80;6.20;;;;;;;39.17;22.32;97740.56;6211668;28;20802;-88
2022/07/22 13:01:21;;;;;;;6.85;6.28;;;;;;;39.17;22.22;97741.38;6220634;28;20230;-89
2022/07/22 13:04:24;;;;;;;7.80;6.57;;;;;;;39.46;22.13;97739.16;6218418;28;20322;-89
2022/07/22 13:07:26;;;;;;;7.90;6.10;;;;;;;39.39;23.04;97741.47;6218770;28;20595;-89
2022/07/22 13:10:28;;;;;;;7.70;6.90;;;;;;;38.84;22.78;97734.25;6220584;28;20606;-88
2022/07/22 13:13:30;;;;;;;6.43;5.82;;;;;;;38.07;22.95;97737.47;6219577;28;20228;-88
2022/07/22 13:16:33;;;;;;;7.20;6.60;;;;;;;38.38;22.49;97721.25;6201014;28;20259;-88
2022/07/22 13:19:35;;;;;;;6.10;5.60;;;;;;;39.15;22.30;97721.53;6193724;28;20232;-88
2022/07/22 13:22:37;;;;;;;6.75;6.18;;;;;;;39.57;21.91;97706.59;6186574;28;20719;-89
2022/07/22 13:25:39;;;;;;;7.10;6.40;;;;;;;39.90;21.28;97706.44;6217034;28;20722;-89
2022/07/22 13:28:42;;;;;;;6.07;5.65;;;;;;;40.54;21.43;97699.59;6200706;28;20227;-89
2022/07/22 13:31:44;;;;;;;7.20;6.50;;;;;;;40.75;20.69;97700.72;6219352;28;20703;-89
2022/07/22 13:35:06;;;;;;;7.07;6.18;;;;;;;40.17;21.48;97700.78;6207004;28;20216;-89
2022/07/22 13:38:11;;;;;;;6.07;5.57;;;;;;;40.77;21.21;97701.22;6201175;28;20236;-89
2022/07/22 13:41:17;;;;;;;6.55;5.95;;;;;;;40.63;20.64;97694.91;6215746;28;20522;-88
2022/07/22 13:44:19;;;;;;;7.00;6.25;;;;;;;40.09;20.63;97693.25;6207793;28;20764;-88
2022/07/22 13:47:22;;;;;;;6.95;6.25;;;;;;;40.49;20.33;97683.94;6225735;28;20358;-89
2022/07/22 13:50:24;;;;;;;6.80;6.10;;;;;;;41.05;19.75;97684.38;6214899;28;20228;-89
2022/07/22 13:53:27;;;;;;;7.88;6.60;;;;;;;41.19;19.88;97677.63;6214250;28;20705;-90
2022/07/22 13:56:29;;;;;;;6.28;5.68;;;;;;;40.06;20.95;97683.63;6197101;28;20258;-88
2022/07/22 13:59:32;;;;;;;6.25;5.63;;;;;;;39.67;21.58;97675.16;6198855;28;20602;-88
2022/07/22 14:02:34;;;;;;;6.80;6.28;;;;;;;39.90;21.80;97671.31;6213923;28;20231;-89
2022/07/22 14:05:36;;;;;;;7.32;5.95;;;;;;;40.56;21.30;97666.88;6215455;28;20224;-89
2022/07/22 14:08:38;;;;;;;8.52;5.93;;;;;;;40.77;20.83;97669.94;6199075;28;20220;-89
2022/07/22 14:11:41;;;;;;;7.43;6.75;;;;;;;41.27;19.65;97662.97;6193180;28;20720;-89
2022/07/22 14:14:44;;;;;;;5.85;5.45;;;;;;;42.74;18.84;97665.69;6222655;28;20579;-88
2022/07/22 14:17:46;;;;;;;7.20;6.30;;;;;;;43.89;17.19;97664.41;6197936;28;20584;-88
2022/07/22 14:20:49;;;;;;;6.47;5.88;;;;;;;46.03;15.64;97662.06;6217190;28;20239;-89
2022/07/22 14:23:51;;;;;;;6.55;5.95;;;;;;;47.68;14.68;97661.16;6204035;28;20227;-88
2022/07/22 14:26:53;;;;;;;6.63;6.13;;;;;;;48.46;13.45;97650.81;6211724;28;20294;-88
2022/07/22 14:29:56;;;;;;;6.32;5.82;;;;;;;48.88;12.71;97650.78;6219724;28;20223;-88
2022/07/22 14:33:00;;;;;;;8.07;6.68;;;;;;;48.86;13.29;97650.34;6198703;28;20224;-88
2022/07/22 14:36:02;;;;;;;8.63;6.90;;;;;;;50.03;12.71;97642.84;6189834;28;20243;-88
2022/07/22 14:39:04;;;;;;;6.32;5.82;;;;;;;50.27;12.34;97645.16;6222499;28;20289;-89